createdAt,value
2022-09-10T00:01:21.956Z,2.27
2022-09-10T00:03:50.282Z,3.43
2022-09-10T00:06:19.473Z,3.87
2022-09-10T00:08:49.259Z,3.43
2022-09-10T00:11:17.827Z,3.17
2022-09-10T00:13:47.512Z,2.67
2022-09-10T00:16:20.139Z,4.43
2022-09-10T00:18:58.793Z,4.03
2022-09-10T00:21:37.840Z,4.33
2022-09-10T00:24:10.121Z,3.73
2022-09-10T00:26:48.636Z,4.00
2022-09-10T00:29:25.442Z,1.97
2022-09-10T00:32:10.331Z,3.67
2022-09-10T00:34:49.544Z,3.60
2022-09-10T00:37:22.898Z,3.57
2022-09-10T00:40:02.520Z,2.70
2022-09-10T00:42:43.964Z,4.47
2022-09-10T00:45:20.031Z,2.70
2022-09-10T00:47:50.419Z,3.17
2022-09-10T00:50:22.682Z,5.00
2022-09-10T00:52:51.563Z,2.33
2022-09-10T00:55:20.051Z,2.43
2022-09-10T00:57:49.335Z,3.07
2022-09-10T01:00:19.269Z,2.83
2022-09-10T01:02:48.265Z,3.30
2022-09-10T01:05:17.401Z,2.77
2022-09-10T01:07:46.023Z,4.93
2022-09-10T01:10:18.026Z,1.77
2022-09-10T01:12:53.222Z,3.27
2022-09-10T01:15:26.469Z,2.60
2022-09-10T01:18:00.369Z,5.73
2022-09-10T01:20:38.269Z,3.50
2022-09-10T01:23:24.643Z,6.07
2022-09-10T01:25:59.987Z,3.13
2022-09-10T01:28:32.326Z,3.07
2022-09-10T01:31:04.654Z,3.13
2022-09-10T01:33:35.819Z,3.40
2022-09-10T01:36:09.653Z,3.17
2022-09-10T01:38:39.754Z,2.67
2022-09-10T01:41:08.199Z,2.43
2022-09-10T01:43:37.933Z,3.40
2022-09-10T01:46:19.268Z,3.67
2022-09-10T01:49:07.458Z,3.30
2022-09-10T01:51:41.084Z,4.33
2022-09-10T01:54:25.446Z,2.83
2022-09-10T01:56:56.238Z,2.97
2022-09-10T01:59:39.621Z,4.07
2022-09-10T02:02:11.978Z,3.57
2022-09-10T02:04:41.283Z,4.23
2022-09-10T02:07:10.628Z,3.27
2022-09-10T02:09:38.971Z,4.53
2022-09-10T02:12:08.053Z,3.80
2022-09-10T02:14:37.767Z,2.73
2022-09-10T02:17:06.259Z,3.27
2022-09-10T02:19:34.598Z,3.77
2022-09-10T02:22:03.030Z,5.17
2022-09-10T02:24:31.370Z,4.87
2022-09-10T02:27:00.477Z,3.40
2022-09-10T02:29:28.861Z,6.10
2022-09-10T02:31:58.929Z,4.43
2022-09-10T02:34:27.342Z,4.20
2022-09-10T02:36:57.773Z,4.23
2022-09-10T02:39:26.426Z,4.70
2022-09-10T02:41:55.973Z,6.53
2022-09-10T02:44:24.390Z,3.23
2022-09-10T02:46:52.750Z,7.20
2022-09-10T02:49:22.623Z,4.23
2022-09-10T02:51:51.739Z,5.57
2022-09-10T02:54:20.923Z,5.33
2022-09-10T02:56:50.009Z,5.17
2022-09-10T02:59:18.917Z,5.43
2022-09-10T03:01:48.468Z,3.30
2022-09-10T03:04:17.254Z,5.67
2022-09-10T03:06:49.394Z,8.17
2022-09-10T03:09:17.807Z,5.93
2022-09-10T03:11:46.582Z,5.03
2022-09-10T03:14:20.220Z,5.47
2022-09-10T03:16:48.793Z,4.60
2022-09-10T03:19:17.517Z,5.87
2022-09-10T03:21:47.890Z,5.90
2022-09-10T03:24:16.250Z,6.80
2022-09-10T03:26:44.674Z,6.33
2022-09-10T03:29:13.312Z,6.90
2022-09-10T03:31:42.701Z,5.63
2022-09-10T03:34:13.363Z,7.87
2022-09-10T03:36:41.935Z,6.10
2022-09-10T03:39:11.774Z,8.60
2022-09-10T03:41:40.140Z,8.23
2022-09-10T03:44:08.660Z,6.33
2022-09-10T03:46:38.179Z,6.27
2022-09-10T03:49:06.578Z,6.43
2022-09-10T03:51:35.268Z,6.70
2022-09-10T03:54:03.711Z,6.03
2022-09-10T03:56:34.138Z,5.87
2022-09-10T03:59:02.599Z,5.33
2022-09-10T04:01:31.081Z,7.30
2022-09-10T04:03:59.431Z,7.10
2022-09-10T04:06:28.204Z,5.10
2022-09-10T04:08:56.517Z,5.27
2022-09-10T04:11:27.675Z,5.70
2022-09-10T04:13:57.655Z,5.27
2022-09-10T04:16:26.115Z,6.30
2022-09-10T04:18:54.534Z,5.73
2022-09-10T04:21:23.272Z,6.07
2022-09-10T04:23:55.022Z,6.00
2022-09-10T04:26:23.826Z,6.60
2022-09-10T04:28:52.598Z,8.17
2022-09-10T04:31:22.441Z,5.87
2022-09-10T04:33:50.874Z,6.23
2022-09-10T04:36:19.314Z,7.30
2022-09-10T04:38:47.642Z,5.60
2022-09-10T04:41:18.236Z,5.57
2022-09-10T04:43:46.617Z,5.37
2022-09-10T04:46:14.999Z,7.83
2022-09-10T04:48:44.704Z,6.50
2022-09-10T04:51:16.497Z,7.10
2022-09-10T04:53:45.503Z,6.30
2022-09-10T04:56:13.997Z,6.47
2022-09-10T04:58:42.701Z,6.30
2022-09-10T05:01:11.670Z,5.67
2022-09-10T05:03:40.182Z,5.60
2022-09-10T05:06:10.175Z,6.87
2022-09-10T05:08:38.759Z,6.47
2022-09-10T05:11:07.358Z,6.57
2022-09-10T05:13:35.759Z,5.80
2022-09-10T05:16:04.722Z,6.67
2022-09-10T05:18:33.219Z,6.10
2022-09-10T05:21:01.592Z,5.17
2022-09-10T05:23:32.642Z,5.40
2022-09-10T05:26:00.976Z,6.20
2022-09-10T05:28:29.401Z,5.20
2022-09-10T05:30:57.734Z,4.90
2022-09-10T05:33:26.195Z,8.27
2022-09-10T05:35:54.582Z,6.50
2022-09-10T05:38:24.023Z,5.33
2022-09-10T05:40:54.069Z,7.57
2022-09-10T05:43:22.592Z,4.70
2022-09-10T05:45:52.390Z,4.60
2022-09-10T05:48:20.771Z,5.53
2022-09-10T05:50:49.090Z,4.17
2022-09-10T05:53:17.473Z,7.20
2022-09-10T05:55:46.035Z,6.97
2022-09-10T05:58:16.771Z,4.90
2022-09-10T06:00:45.326Z,5.77
2022-09-10T06:03:14.496Z,7.50
2022-09-10T06:05:44.266Z,5.23
2022-09-10T06:08:12.999Z,4.77
2022-09-10T06:10:41.588Z,6.00
2022-09-10T06:13:11.214Z,4.40
2022-09-10T06:15:42.206Z,5.90
2022-09-10T06:18:10.528Z,5.50
2022-09-10T06:20:39.427Z,6.53
2022-09-10T06:23:07.753Z,7.77
2022-09-10T06:25:36.934Z,6.57
2022-09-10T06:28:05.918Z,5.27
2022-09-10T06:30:34.324Z,4.93
2022-09-10T06:33:04.172Z,5.50
2022-09-10T06:35:33.301Z,5.20
2022-09-10T06:38:02.320Z,4.20
2022-09-10T06:40:31.061Z,6.67
2022-09-10T06:43:03.271Z,5.77
2022-09-10T06:45:32.545Z,4.10
2022-09-10T06:50:55.533Z,3.42
2022-09-10T06:53:24.099Z,3.65
2022-09-10T06:55:53.000Z,4.10
2022-09-10T06:58:21.990Z,3.60
2022-09-10T07:00:50.824Z,4.63
2022-09-10T07:03:20.407Z,4.78
2022-09-10T07:05:49.151Z,4.45
2022-09-10T07:08:21.093Z,3.25
2022-09-10T07:10:49.464Z,3.55
2022-09-10T07:13:17.823Z,4.85
2022-09-10T07:15:47.643Z,3.35
2022-09-10T07:18:16.152Z,3.80
2022-09-10T07:20:44.922Z,3.70
2022-09-10T07:23:13.315Z,2.45
2022-09-10T07:25:43.495Z,4.15
2022-09-10T07:28:14.478Z,3.50
2022-09-10T07:30:43.369Z,2.72
2022-09-10T07:33:12.215Z,2.75
2022-09-10T07:35:40.838Z,4.63
2022-09-10T07:38:15.545Z,3.85
2022-09-10T07:40:45.342Z,1.92
2022-09-10T07:43:13.688Z,2.42
2022-09-10T07:45:42.809Z,1.90
2022-09-10T07:48:13.244Z,2.30
2022-09-10T07:50:41.957Z,3.08
2022-09-10T07:53:11.260Z,3.95
2022-09-10T07:55:40.147Z,3.50
2022-09-10T07:58:10.227Z,2.90
2022-09-10T08:00:38.647Z,2.90
2022-09-10T08:03:06.967Z,3.75
2022-09-10T08:05:36.422Z,3.75
2022-09-10T08:08:04.918Z,3.40
2022-09-10T08:10:33.310Z,4.03
2022-09-10T08:13:01.648Z,3.17
2022-09-10T08:15:31.397Z,2.42
2022-09-10T08:18:00.772Z,2.13
2022-09-10T08:20:29.583Z,2.28
2022-09-10T08:22:58.370Z,1.90
2022-09-10T08:25:26.829Z,3.47
2022-09-10T08:27:55.339Z,2.95
2022-09-10T08:30:24.099Z,2.00
2022-09-10T08:32:54.797Z,2.95
2022-09-10T08:35:23.321Z,2.80
2022-09-10T08:37:51.688Z,2.75
2022-09-10T08:40:22.102Z,2.65
2022-09-10T08:42:51.240Z,2.20
2022-09-10T08:45:21.975Z,3.17
2022-09-10T08:47:54.441Z,2.33
2022-09-10T08:50:30.426Z,2.47
2022-09-10T08:53:01.381Z,4.32
2022-09-10T08:55:32.705Z,3.58
2022-09-10T08:58:02.452Z,2.67
2022-09-10T09:00:34.248Z,2.83
2022-09-10T09:03:05.209Z,3.85
2022-09-10T09:05:41.445Z,1.90
2022-09-10T09:08:12.818Z,3.33
2022-09-10T09:10:45.889Z,2.65
2022-09-10T09:13:38.232Z,3.30
2022-09-10T09:16:19.086Z,3.53
2022-09-10T09:18:57.989Z,3.10
2022-09-10T09:21:32.471Z,3.65
2022-09-10T09:24:13.315Z,2.28
2022-09-10T09:26:47.910Z,1.92
2022-09-10T09:29:19.094Z,4.07
2022-09-10T09:31:49.957Z,1.92
2022-09-10T09:34:20.891Z,2.47
2022-09-10T09:36:52.177Z,2.33
2022-09-10T09:39:25.584Z,2.10
2022-09-10T09:42:00.519Z,3.17
2022-09-10T09:44:31.629Z,1.88
2022-09-10T09:47:00.504Z,2.67
2022-09-10T09:49:29.928Z,2.97
2022-09-10T09:51:59.703Z,3.08
2022-09-10T09:57:20.667Z,3.70
2022-09-10T09:59:49.865Z,5.30
2022-09-10T10:02:19.616Z,3.67
2022-09-10T10:05:02.181Z,6.30
2022-09-10T10:07:32.759Z,4.97
2022-09-10T10:10:02.166Z,3.42
2022-09-10T10:12:32.719Z,4.10
2022-09-10T10:15:02.822Z,4.05
2022-09-10T10:17:38.920Z,4.97
2022-09-10T10:20:09.216Z,4.10
2022-09-10T10:22:40.080Z,4.10
2022-09-10T10:25:30.171Z,6.43
2022-09-10T10:27:59.249Z,5.22
2022-09-10T10:30:30.082Z,5.57
2022-09-10T10:33:00.032Z,4.60
2022-09-10T10:35:33.982Z,6.22
2022-09-10T10:38:12.706Z,4.68
2022-09-10T10:40:45.240Z,5.10
2022-09-10T10:43:16.894Z,6.57
2022-09-10T10:45:53.337Z,4.47
2022-09-10T10:48:25.796Z,5.93
2022-09-10T10:50:57.702Z,4.28
2022-09-10T10:53:37.269Z,5.35
2022-09-10T10:56:09.195Z,4.68
2022-09-10T10:58:53.470Z,5.85
2022-09-10T11:01:23.512Z,4.65
2022-09-10T11:03:57.134Z,5.47
2022-09-10T11:06:29.188Z,5.82
2022-09-10T11:09:01.286Z,4.90
2022-09-10T11:11:31.785Z,4.82
2022-09-10T11:14:02.273Z,5.05
2022-09-10T11:16:40.299Z,7.10
2022-09-10T11:19:13.215Z,5.18
2022-09-10T11:21:44.053Z,5.82
2022-09-10T11:24:17.319Z,5.05
2022-09-10T11:26:47.338Z,5.25
2022-09-10T11:29:25.653Z,4.85
2022-09-10T11:32:00.849Z,6.50
2022-09-10T11:34:34.667Z,5.30
2022-09-10T11:37:08.285Z,4.90
2022-09-10T11:39:40.117Z,4.82
2022-09-10T11:42:16.858Z,6.03
2022-09-10T11:44:51.778Z,5.15
2022-09-10T11:47:23.220Z,4.70
2022-09-10T11:49:54.154Z,6.40
2022-09-10T11:52:25.743Z,4.82
2022-09-10T11:54:55.897Z,5.40
2022-09-10T11:57:28.549Z,5.53
2022-09-10T12:00:10.373Z,5.68
2022-09-10T12:02:57.363Z,4.80
2022-09-10T12:05:28.199Z,6.50
2022-09-10T12:08:03.709Z,7.10
2022-09-10T12:10:35.701Z,5.95
2022-09-10T12:13:09.627Z,6.15
2022-09-10T12:15:39.284Z,6.60
2022-09-10T12:18:13.741Z,7.45
2022-09-10T12:20:44.367Z,6.22
2022-09-10T12:23:17.456Z,7.43
2022-09-10T12:25:58.690Z,6.72
2022-09-10T12:28:46.455Z,6.90
2022-09-10T12:31:15.877Z,6.45
2022-09-10T12:33:59.394Z,7.38
2022-09-10T12:36:46.270Z,6.28
2022-09-10T12:39:24.762Z,5.68
2022-09-10T12:41:58.261Z,5.90
2022-09-10T12:44:46.494Z,5.47
2022-09-10T12:47:29.733Z,6.25
2022-09-10T12:49:59.026Z,6.10
2022-09-10T12:52:32.317Z,4.97
2022-09-10T12:55:06.527Z,5.03
2022-09-10T12:57:40.413Z,5.10
2022-09-10T13:00:13.978Z,5.95
2022-09-10T13:02:48.080Z,5.40
2022-09-10T13:05:29.771Z,5.32
2022-09-10T13:08:06.716Z,5.35
2022-09-10T13:10:35.622Z,5.38
2022-09-10T13:13:07.825Z,5.47
2022-09-10T13:15:39.217Z,6.05
2022-09-10T13:18:14.803Z,5.43
2022-09-10T13:20:43.147Z,5.90
2022-09-10T13:23:21.748Z,5.40
2022-09-10T13:25:50.503Z,4.93
2022-09-10T13:28:40.788Z,5.35
2022-09-10T13:31:14.852Z,5.50
2022-09-10T13:33:49.187Z,7.18
2022-09-10T13:36:24.815Z,5.80
2022-09-10T13:39:03.407Z,4.70
2022-09-10T13:41:43.651Z,5.07
2022-09-10T13:44:23.024Z,5.20
2022-09-10T13:46:54.827Z,4.88
2022-09-10T13:49:29.190Z,5.20
2022-09-10T13:51:58.888Z,4.97
2022-09-10T13:54:31.350Z,5.38
2022-09-10T13:57:01.059Z,5.13
2022-09-10T13:59:31.544Z,5.90
2022-09-10T14:02:01.304Z,4.60
2022-09-10T14:04:32.054Z,4.30
2022-09-10T14:07:04.811Z,4.07
2022-09-10T14:09:33.310Z,3.63
2022-09-10T14:12:02.737Z,3.97
2022-09-10T14:14:32.421Z,3.08
2022-09-10T14:17:05.114Z,3.88
2022-09-10T14:19:37.874Z,4.15
2022-09-10T14:22:10.090Z,3.40
2022-09-10T14:24:48.148Z,3.13
2022-09-10T14:27:18.590Z,3.63
2022-09-10T14:29:47.740Z,3.50
2022-09-10T14:32:27.635Z,3.50
2022-09-10T14:34:59.394Z,3.20
2022-09-10T14:37:33.295Z,3.22
2022-09-10T14:40:06.835Z,3.20
2022-09-10T14:42:36.165Z,4.13
2022-09-10T14:45:04.755Z,3.75
2022-09-10T14:47:37.092Z,3.75
2022-09-10T14:50:24.533Z,3.30
2022-09-10T14:52:53.364Z,3.60
2022-09-10T14:55:23.523Z,3.22
2022-09-10T14:57:53.333Z,4.00
2022-09-10T15:00:23.330Z,3.45
2022-09-10T15:02:58.947Z,3.58
2022-09-10T15:05:27.959Z,3.63
2022-09-10T15:07:56.320Z,3.05
2022-09-10T15:10:24.924Z,3.00
2022-09-10T15:12:55.531Z,2.90
2022-09-10T15:15:24.996Z,3.45
2022-09-10T15:17:54.778Z,5.55
2022-09-10T15:20:27.650Z,2.75
2022-09-10T15:22:56.356Z,2.45
2022-09-10T15:25:37.956Z,2.40
2022-09-10T15:28:07.651Z,2.67
2022-09-10T15:30:36.986Z,2.53
2022-09-10T15:33:07.226Z,3.13
2022-09-10T15:35:38.341Z,5.82
2022-09-10T15:38:07.090Z,3.65
2022-09-10T15:40:35.675Z,2.78
2022-09-10T15:43:05.574Z,2.80
2022-09-10T15:45:34.818Z,2.90
2022-09-10T15:48:03.408Z,2.88
2022-09-10T15:50:33.197Z,3.08
2022-09-10T15:53:01.530Z,2.70
2022-09-10T15:55:31.570Z,3.35
2022-09-10T15:57:59.905Z,2.80
2022-09-10T16:00:28.483Z,2.70
2022-09-10T16:02:57.298Z,3.05
2022-09-10T16:05:25.748Z,3.30
2022-09-10T16:07:55.431Z,5.40
2022-09-10T16:10:23.919Z,4.40
2022-09-10T16:12:53.186Z,4.18
2022-09-10T16:15:21.594Z,4.25
2022-09-10T16:17:49.950Z,4.88
2022-09-10T16:20:19.609Z,4.60
2022-09-10T16:22:48.475Z,4.80
2022-09-10T16:25:18.398Z,4.20
2022-09-10T16:27:46.749Z,4.43
2022-09-10T16:30:15.184Z,6.35
2022-09-10T16:32:43.559Z,6.25
2022-09-10T16:35:12.025Z,6.28
2022-09-10T16:37:40.721Z,5.80
2022-09-10T16:40:11.244Z,5.65
2022-09-10T16:42:41.059Z,5.63
2022-09-10T16:45:10.307Z,5.25
2022-09-10T16:47:38.946Z,6.60
2022-09-10T16:50:07.554Z,8.07
2022-09-10T16:52:35.939Z,6.00
2022-09-10T16:55:04.751Z,6.25
2022-09-10T16:57:33.091Z,5.88
2022-09-10T17:00:03.283Z,6.15
2022-09-10T17:02:32.040Z,6.47
2022-09-10T17:05:00.474Z,6.72
2022-09-10T17:07:29.283Z,6.18
2022-09-10T17:10:00.843Z,6.40
2022-09-10T17:12:29.576Z,5.90
2022-09-10T17:14:57.976Z,6.65
2022-09-10T17:17:27.815Z,7.30
2022-09-10T17:19:56.527Z,7.75
2022-09-10T17:22:24.938Z,7.53
2022-09-10T17:24:54.009Z,6.78
2022-09-10T17:27:25.402Z,7.10
2022-09-10T17:29:54.054Z,7.05
2022-09-10T17:32:22.450Z,7.55
2022-09-10T17:34:52.192Z,6.80
2022-09-10T17:37:20.998Z,8.05
2022-09-10T17:39:51.525Z,7.10
2022-09-10T17:42:20.185Z,6.97
2022-09-10T17:44:49.492Z,7.20
2022-09-10T17:47:17.849Z,7.47
2022-09-10T17:49:46.242Z,6.90
2022-09-10T17:52:15.973Z,7.07
2022-09-10T17:54:44.349Z,7.05
2022-09-10T17:57:13.397Z,7.28
2022-09-10T17:59:42.006Z,7.60
2022-09-10T18:02:15.371Z,7.25
2022-09-10T18:04:44.200Z,7.15
2022-09-10T18:07:13.047Z,7.68
2022-09-10T18:09:42.778Z,8.20
2022-09-10T18:12:11.279Z,6.75
2022-09-10T18:14:39.675Z,6.93
2022-09-10T18:17:08.057Z,8.38
2022-09-10T18:19:36.602Z,8.13
2022-09-10T18:22:05.777Z,9.07
2022-09-10T18:24:34.753Z,8.60
2022-09-10T18:27:05.379Z,8.38
2022-09-10T18:29:33.930Z,10.00
2022-09-10T18:32:02.440Z,9.55
2022-09-10T18:34:31.758Z,8.82
2022-09-10T18:37:01.094Z,9.32
2022-09-10T18:39:30.410Z,7.35
2022-09-10T18:41:59.741Z,8.32
2022-09-10T18:44:30.629Z,8.98
2022-09-10T18:46:58.986Z,9.00
2022-09-10T18:49:27.735Z,7.90
2022-09-10T18:51:57.334Z,8.27
2022-09-10T18:54:28.774Z,8.63
2022-09-10T18:56:57.595Z,9.52
2022-09-10T18:59:26.515Z,8.98
2022-09-10T19:01:57.015Z,8.65
2022-09-10T19:04:26.494Z,8.90
2022-09-10T19:06:54.941Z,9.18
2022-09-10T19:09:24.083Z,8.20
2022-09-10T19:11:53.298Z,8.73
2022-09-10T19:14:22.685Z,8.38
2022-09-10T19:16:51.793Z,8.45
2022-09-10T19:19:23.022Z,8.48
2022-09-10T19:21:52.591Z,7.97
2022-09-10T19:24:32.906Z,8.88
2022-09-10T19:27:09.628Z,7.55
2022-09-10T19:29:38.882Z,10.05
2022-09-10T19:32:08.194Z,10.20
2022-09-10T19:34:37.926Z,9.27
2022-09-10T19:37:07.221Z,11.02
2022-09-10T19:39:35.747Z,12.98
2022-09-10T19:42:04.515Z,12.55
2022-09-10T19:44:33.652Z,11.75
2022-09-10T19:47:04.107Z,12.55
2022-09-10T19:49:34.203Z,13.63
2022-09-10T19:52:04.663Z,13.40
2022-09-10T19:54:33.062Z,13.65
2022-09-10T19:57:01.419Z,13.95
2022-09-10T19:59:29.830Z,13.57
2022-09-10T20:01:58.285Z,13.90
2022-09-10T20:04:27.742Z,13.43
2022-09-10T20:06:56.113Z,13.60
2022-09-10T20:09:25.885Z,13.35
2022-09-10T20:11:54.241Z,13.00
2022-09-10T20:14:22.703Z,13.18
2022-09-10T20:16:51.269Z,13.23
2022-09-10T20:19:22.092Z,12.50
2022-09-10T20:21:50.963Z,11.32
2022-09-10T20:24:19.424Z,11.18
2022-09-10T20:26:49.228Z,12.18
2022-09-10T20:29:19.258Z,11.93
2022-09-10T20:31:48.525Z,11.68
2022-09-10T20:34:20.775Z,11.05
2022-09-10T20:36:51.209Z,11.52
2022-09-10T20:39:20.619Z,10.73
2022-09-10T20:41:50.439Z,10.50
2022-09-10T20:44:19.964Z,10.23
2022-09-10T20:46:48.569Z,10.52
2022-09-10T20:49:17.197Z,10.90
2022-09-10T20:51:45.702Z,10.98
2022-09-10T20:54:15.650Z,11.98
2022-09-10T20:56:43.991Z,11.52
2022-09-10T20:59:15.624Z,10.48
2022-09-10T21:01:46.406Z,11.85
2022-09-10T21:04:15.421Z,11.63
2022-09-10T21:06:43.752Z,11.73
2022-09-10T21:09:13.048Z,11.38
2022-09-10T21:11:41.424Z,11.80
2022-09-10T21:14:11.162Z,12.43
2022-09-10T21:16:43.223Z,13.27
2022-09-10T21:19:12.479Z,13.20
2022-09-10T21:21:41.767Z,13.85
2022-09-10T21:24:12.272Z,13.87
2022-09-10T21:26:41.883Z,13.65
2022-09-10T21:29:12.250Z,13.30
2022-09-10T21:31:42.294Z,13.10
2022-09-10T21:34:10.864Z,12.87
2022-09-10T21:36:41.079Z,13.30
2022-09-10T21:39:12.918Z,12.47
2022-09-10T21:41:42.574Z,12.37
2022-09-10T21:44:14.236Z,13.27
2022-09-10T21:46:44.519Z,12.05
2022-09-10T21:49:13.004Z,12.70
2022-09-10T21:51:42.292Z,13.60
2022-09-10T21:54:13.386Z,13.80
2022-09-10T21:56:41.722Z,14.83
2022-09-10T21:59:11.874Z,13.53
2022-09-10T22:01:40.612Z,13.50
2022-09-10T22:04:11.251Z,14.00
2022-09-10T22:06:39.670Z,14.32
2022-09-10T22:09:09.270Z,16.35
2022-09-10T22:11:38.351Z,15.23
2022-09-10T22:14:07.940Z,14.60
2022-09-10T22:16:37.290Z,15.13
2022-09-10T22:19:06.723Z,15.67
2022-09-10T22:21:38.371Z,15.67
2022-09-10T22:24:06.876Z,15.43
2022-09-10T22:26:36.721Z,15.50
2022-09-10T22:29:06.056Z,14.75
2022-09-10T22:31:35.387Z,15.60
2022-09-10T22:34:04.685Z,15.45
2022-09-10T22:36:34.087Z,15.43
2022-09-10T22:39:05.191Z,14.87
2022-09-10T22:41:35.094Z,15.47
2022-09-10T22:44:03.883Z,18.27
2022-09-10T22:46:32.990Z,14.90
2022-09-10T22:49:01.440Z,16.23
2022-09-10T22:51:30.532Z,16.37
2022-09-10T22:53:59.755Z,16.10
2022-09-10T22:56:30.118Z,17.73
2022-09-10T22:58:59.672Z,16.40
2022-09-10T23:01:29.158Z,17.65
2022-09-10T23:03:58.387Z,15.47
2022-09-10T23:06:27.886Z,16.85
2022-09-10T23:08:57.882Z,17.07
2022-09-10T23:11:27.005Z,18.27
2022-09-10T23:13:57.980Z,17.23
2022-09-10T23:16:28.293Z,18.13
2022-09-10T23:18:57.344Z,16.37
2022-09-10T23:21:26.443Z,17.50
2022-09-10T23:23:55.573Z,18.90
2022-09-10T23:26:24.737Z,21.13
2022-09-10T23:28:53.090Z,19.73
2022-09-10T23:31:23.547Z,21.17
2022-09-10T23:33:54.655Z,23.07
2022-09-10T23:36:23.282Z,20.40
2022-09-10T23:38:51.825Z,22.13
2022-09-10T23:41:20.417Z,23.20
2022-09-10T23:43:48.811Z,22.07
2022-09-10T23:46:17.276Z,24.63
2022-09-10T23:48:46.990Z,24.23
2022-09-10T23:51:15.985Z,24.57
2022-09-10T23:53:45.159Z,25.07
2022-09-10T23:56:13.839Z,25.10
2022-09-10T23:58:42.444Z,25.97
